Tiempo atmosférico en la estación meteorológica de Aguilar de la Frontera, Córdoba (305 m.)



Fecha
DESCASC
Temp. máxima en grados centígrados (hora)
DESCASC
Temp. mínima en grados centígrados (hora)
DESCASC
Temp. media en grados centígrados
DESCASC
Racha de viento máxima en m/sg (hora)
DESCASC
Velocidad máxima media en intervalos de 10 minutos(hora)
DESCASC
Precipitaciones diarias en mm
DESCASC
Precipitaciones de 00:00 a 06:00 en mm
DESCASC
Precipitaciones de 06:00 a 12:00 en mm
DESCASC
Precipitaciones de 12:00 a 18:00 en mm
DESCASC
Precipitaciones de 18:00 a 24:00 en mm
DESCASC
17-09-2020 31.6 (15:20) 21.6 (05:50) 26.6 13.61 (22:40) 8.61 (18:20) 3.6 0.4 1.2 0.8 1.2
16-09-2020 32.3 (17:00) 17.9 (08:30) 25.1 8.33 (21:10) 5.28 (17:30) 1.2 0 0 0 1.2
15-09-2020 32 (17:00) 17.1 (07:20) 24.6 6.39 (15:50) 3.89 (17:10) 0 0 0 0 0
14-09-2020 31.8 (14:20) 19.2 (00:00) 25.5 10.83 (13:10) 6.67 (13:20) 0 0 0 0 0
13-09-2020 34.5 (17:10) 19.7 (00:00) 27.1 7.78 (21:30) 4.72 (17:50) 0 0 0 0 0
12-09-2020 35.8 (17:00) 18.3 (00:00) 27 7.22 (19:40) 4.44 (19:40) 0 0 0 0 0
11-09-2020 34.4 (15:50) 19.2 (00:00) 26.8 7.22 (23:10) 4.72 (01:50) 0 0 0 0 0
10-09-2020 33.7 (19:00) 18.3 (00:00) 26 6.67 (03:10) 4.72 (00:10) 0 0 0 0 0
09-09-2020 32.4 (18:40) 16.4 (00:00) 24.4 7.22 (00:10) 5 (00:10) 0.2 0 0.2 0 0
08-09-2020 31.2 (15:50) 20.3 (00:00) 25.8 10.83 (16:50) 6.39 (16:40) 0 0 0 0 0
07-09-2020 35.5 (19:00) 19.7 (08:00) 27.6 6.67 (23:50) 4.72 (01:00) 0 0 0 0 0
06-09-2020 34.3 (19:00) 18.4 (00:00) 26.3 11.67 (01:40) 6.94 (01:40) 0 0 0 0 0
05-09-2020 34.1 (18:30) 17.4 (00:00) 25.7 10.83 (22:50) 6.67 (22:50) 0 0 0 0 0
04-09-2020 34.4 (17:00) 16.4 (00:00) 25.4 9.44 (23:10) 6.11 (21:20) 0 0 0 0 0
03-09-2020 33.8 (16:10) 16.4 (00:00) 25.1 8.89 (19:50) 5.56 (19:00) 0 0 0 0 0
02-09-2020 32.9 (18:00) 16.4 (00:00) 24.7 8.89 (22:40) 5.83 (22:40) 0 0 0 0 0
01-09-2020 30.9 (17:50) 16.2 (00:00) 23.6 8.89 (00:30) 5.28 (00:20) 0 0 0 0 0
31-08-2020 32.4 (17:10) 15.1 (00:00) 23.8 9.44 (20:10) 5.83 (20:00) 0 0 0 0 0
30-08-2020 30.9 (19:10) 16.4 (00:00) 23.6 6.67 (14:40) 3.89 (13:20) 0 0 0 0 0
29-08-2020 29.7 (18:50) 15.2 (00:00) 22.5 10.28 (14:50) 6.11 (19:30) 0 0 0 0 0
28-08-2020 34.4 (18:00) 19.8 (00:00) 27.1 10.83 (21:50) 6.39 (20:10) 0 0 0 0 0
27-08-2020 39.1 (16:30) 22.9 (00:00) 31 6.11 (22:50) 3.89 (09:40) 0 0 0 0 0
26-08-2020 39.4 (17:40) 20.8 (00:00) 30.1 5.56 (01:30) 3.89 (01:30) 0 0 0 0 0
25-08-2020 38.4 (18:30) 21.3 (00:00) 29.9 6.94 (01:10) 4.44 (22:30) 0 0 0 0 0
24-08-2020 36.7 (19:20) 21 (00:00) 28.9 7.22 (22:20) 4.72 (05:10) 0 0 0 0 0
23-08-2020 37.7 (18:50) 18.3 (00:00) 28 4.44 (22:00) 2.78 (05:00) 0 0 0 0 0
22-08-2020 36.9 (19:30) 18.8 (00:00) 27.9 5.28 (13:10) 3.33 (15:20) 0 0 0 0 0
21-08-2020 35.8 (18:20) 15 (00:00) 25.4 5.28 (20:30) 3.61 (20:20) 0 0 0 0 0

Gráficas

Temp. máximas Temp. mínimas Temp. medias Precipitaciones Rachas de viento máximas Velocidades máximas media en intervalos de 10 minutos

Datos horarios

Fecha y hora oficial Temperatura (ºC) Velocidad del viento (km/h) Dirección del viento Racha (km/h) Dirección de racha Precipitación (mm) Presión (hPa) Tendencia (hPa) Humedad (%)
2020-09-19 23:00:00 18.6 3 Sudoeste 14 Sudeste -- -- -- 86
2020-09-19 22:00:00 18.7 10 Sudeste 15 Sudeste -- -- -- 86
2020-09-19 21:00:00 19.7 10 Sudeste 14 Sudeste -- -- -- 81
2020-09-19 20:00:00 21.9 9 Sur 17 Sur -- -- -- 71
2020-09-19 19:00:00 23.2 9 Sur 19 Sudoeste -- -- -- 64
2020-09-19 18:00:00 22.5 9 Sudoeste 19 Sudoeste -- -- -- 69
2020-09-19 17:00:00 21.7 9 Sudoeste 19 Oeste -- -- -- 73
2020-09-19 16:00:00 21.3 11 Oeste 22 Oeste -- -- -- 77
2020-09-19 15:00:00 19.9 17 Oeste 27 Oeste -- -- -- 86
2020-09-19 14:00:00 22.1 9 Oeste 27 Oeste -- -- -- 68
2020-09-19 13:00:00 23.2 8 Noroeste 21 Oeste -- -- -- 64
2020-09-19 12:00:00 22 5 Noroeste 12 Oeste -- -- -- 61
2020-09-19 11:00:00 20.6 3 Oeste 13 Sur -- -- -- 71
2020-09-19 10:00:00 21 9 Sudeste 14 Sudeste -- -- -- 64
2020-09-19 09:00:00 18.7 5 Sudoeste 12 Oeste -- -- -- 72
2020-09-19 08:00:00 18.6 6 Sudeste 12 Sudeste -- -- -- 71
2020-09-19 07:00:00 18.5 6 Sur 15 Sur -- -- -- 74
2020-09-19 06:00:00 18.7 10 Sur 20 Sur -- -- -- 76
2020-09-19 05:00:00 19 9 Sur 24 Sur -- -- -- 76
2020-09-19 04:00:00 19.2 9 Sudoeste 19 Sudoeste -- -- -- 73
2020-09-19 03:00:00 18.9 12 Sudoeste 23 Sudoeste -- -- -- 69
2020-09-19 02:00:00 19.5 14 Sudoeste 23 Sudoeste -- -- -- 67
2020-09-19 01:00:00 20 8 Sudoeste 19 Sudoeste -- -- -- 67
2020-09-19 00:00:00 20 12 Sur 30 Sudoeste -- -- -- 68
2020-09-18 23:00:00 20.7 18 Sudoeste 38 Sudoeste -- -- -- 67
2020-09-18 22:00:00 21.1 17 Sudoeste 37 Sudoeste -- -- -- 67
2020-09-18 21:00:00 21.8 17 Sudoeste 43 Sudoeste -- -- -- 66
2020-09-18 20:00:00 23.8 19 Sudoeste 36 Sur -- -- -- 57
2020-09-18 19:00:00 24.9 21 Sur 44 Sur -- -- -- 53
2020-09-18 18:00:00 25.6 24 Sur 49 Sudeste -- -- -- 51
2020-09-18 17:00:00 25.2 32 Sur 55 Sur -- -- -- 57
2020-09-18 16:00:00 26.1 30 Sur 53 Sur -- -- -- 54
2020-09-18 15:00:00 26.3 30 Sur 52 Sudeste -- -- -- 51
2020-09-18 14:00:00 27.5 30 Sur 54 Sur -- -- -- 46
2020-09-18 13:00:00 26.9 33 Sur 55 Sur -- -- -- 50
2020-09-18 12:00:00 25.8 27 Sur 44 Sudoeste -- -- -- 55
2020-09-18 11:00:00 23.3 18 Sur 33 Sur -- -- -- 63
2020-09-18 10:00:00 20.8 9 Sur 24 Sudeste -- -- -- 74
2020-09-18 09:00:00 20.8 6 Sur 18 Sur -- -- -- 72
2020-09-18 08:00:00 20.9 10 Sur 28 Sudeste -- -- -- 70
2020-09-18 07:00:00 21 18 Sudeste 32 Sudeste -- -- -- 70
2020-09-18 06:00:00 21.1 18 Sudeste 35 Sur -- -- -- 69
2020-09-18 05:00:00 21.6 19 Sudeste 39 Sur 0 -- -- 66
2020-09-18 04:00:00 22 25 Sudeste 48 Sudeste 0 -- -- 64
2020-09-18 03:00:00 22.8 29 Sudeste 50 Sudeste 0 -- -- 60
2020-09-18 02:00:00 23.1 30 Sudeste 55 Sudeste 0 -- -- 57
2020-09-18 01:00:00 23.6 24 Sur 40 Sur 0 -- -- 55
2020-09-18 00:00:00 23.8 21 Sudeste 36 Sudeste 1.2 -- -- 54
2020-09-17 23:00:00 23.9 22 Sudeste 49 Sudeste 0 -- -- 55
2020-09-17 22:00:00 24.6 18 Sudeste 44 Sudeste 0 -- -- 54
2020-09-17 21:00:00 25.6 24 Sudeste 48 Sur 0 -- -- 50
2020-09-17 20:00:00 27.4 24 Sur 36 Sur 0 -- -- 45
2020-09-17 19:00:00 29 20 Sur 48 Sur 0 -- -- 43
2020-09-17 18:00:00 29.7 23 Sur 35 Sur 0 -- -- 41
2020-09-17 17:00:00 30.7 18 Sur 37 Sudeste 0 -- -- 40
2020-09-17 16:00:00 30.5 20 Sur 33 Sur 0 -- -- 37
2020-09-17 15:00:00 30.1 17 Sur 40 Sudeste 0.2 -- -- 40
2020-09-17 14:00:00 29.2 20 Sur 43 Sur 0.2 -- -- 43
2020-09-17 13:00:00 28.3 27 Sur 46 Sudeste 0.4 -- -- 46
2020-09-17 12:00:00 27.7 22 Sudeste 35 Sur 0.4 -- -- 50
2020-09-17 11:00:00 26.7 21 Sudeste 39 Sudeste 0 -- -- 53
2020-09-17 10:00:00 24.6 10 Sudeste 17 Sudeste 0 -- -- 59
2020-09-17 09:00:00 23.7 8 Sudeste 27 Sudeste 0 -- -- 63
2020-09-17 08:00:00 23.4 16 Sudeste 32 Sudeste 0.8 -- -- 66
2020-09-17 07:00:00 22.8 13 Sudeste 22 Sudeste 0 -- -- 67
2020-09-17 06:00:00 21.6 7 Sudeste 14 Sur 0 -- -- 76
2020-09-17 05:00:00 22.2 10 Sur 21 Sur 0 -- -- 74
2020-09-17 04:00:00 22.6 15 Sur 26 Sur 0 -- -- 73
2020-09-17 03:00:00 22.6 10 Sur 19 Sur 0 -- -- 70
2020-09-17 02:00:00 22.1 0 Calma 11 Este 0 -- -- 65
2020-09-17 01:00:00 23 6 Sudeste 14 Este 0.4 -- -- 64
2020-09-17 00:00:00 21.9 9 Este 18 Sudeste 1.2 -- -- 76
2020-09-16 23:00:00 23.5 9 Sudeste 14 Sur 0 -- -- 69
2020-09-16 22:00:00 25.7 9 Sur 30 Sur 0 -- -- 47
2020-09-16 21:00:00 27 13 Sur 25 Sur 0 -- -- 38
2020-09-16 20:00:00 28.2 14 Sur 27 Sur 0 -- -- 31
2020-09-16 19:00:00 29.4 14 Sudoeste 27 Sur 0 -- -- 32
2020-09-16 18:00:00 30.9 18 Sur 29 Sur 0 -- -- 31
2020-09-16 17:00:00 32.3 14 Sur 26 Sur 0 -- -- 30
2020-09-16 16:00:00 31.3 13 Sur 23 Sur 0 -- -- 34
2020-09-16 15:00:00 31.7 10 Sudoeste 21 Sur 0 -- -- 35
2020-09-16 14:00:00 29.3 6 Oeste 15 Sudoeste 0 -- -- 35
2020-09-16 13:00:00 27.9 6 Oeste 12 Oeste 0 -- -- 40
2020-09-16 12:00:00 27.5 7 Oeste 13 Noroeste 0 -- -- 45
2020-09-16 11:00:00 25.7 6 Norte 13 Norte 0 -- -- 49
2020-09-16 10:00:00 23 2 Norte 4 Este 0 -- -- 58
2020-09-16 09:00:00 19.3 0 Calma 8 Nordeste 0 -- -- 69
2020-09-16 08:00:00 18.4 4 Este 13 Sudeste 0 -- -- 70
2020-09-16 07:00:00 19.6 11 Sudeste 18 Este 0 -- -- 65
2020-09-16 06:00:00 -- -- -- -- -- -- -- -- --
2020-09-16 05:00:00 19.7 10 Sudeste 14 Sudeste 0 -- -- 63
2020-09-16 04:00:00 19.6 10 Sudeste 13 Sudeste 0 -- -- 62
2020-09-16 03:00:00 20.4 5 Sur 13 Sudeste 0 -- -- 65
2020-09-16 02:00:00 21.1 4 Sur 16 Sudeste 0 -- -- 59
2020-09-16 01:00:00 23 13 Sudeste 17 Sudeste 0 -- -- 49
2020-09-16 00:00:00 23.5 11 Sudeste 16 Sudeste 0 -- -- 47
2020-09-15 23:00:00 23.2 2 Sudoeste 8 Sudoeste 0 -- -- 51
2020-09-15 22:00:00 24.6 2 Sudoeste 10 Sur 0 -- -- 48
2020-09-15 21:00:00 26.2 5 Sur 9 Sur 0 -- -- 45
2020-09-15 20:00:00 29.9 6 Sudoeste 17 Sudoeste 0 -- -- 37
2020-09-15 19:00:00 31.4 10 Sur 21 Sudoeste 0 -- -- 34
2020-09-15 18:00:00 31.8 12 Sudoeste 23 Sur 0 -- -- 33
2020-09-15 17:00:00 32 12 Sudoeste 23 Sudoeste 0 -- -- 35
2020-09-15 16:00:00 31 13 Sudoeste 23 Sudoeste 0 -- -- 41
2020-09-15 15:00:00 30 9 Sur 19 Sudoeste 0 -- -- 44
2020-09-15 14:00:00 28.7 6 Sur 15 Sudoeste 0 -- -- 49
2020-09-15 13:00:00 26.7 5 Oeste 11 Sudoeste 0.2 -- -- 54
2020-09-15 12:00:00 25.7 4 Noroeste 13 Noroeste 0 -- -- 60
2020-09-15 11:00:00 23.8 5 Noroeste 12 Norte 0 -- -- 67
2020-09-15 10:00:00 22.6 3 Norte 7 Norte 0 -- -- 74
2020-09-15 09:00:00 19 0 Calma 6 Este 0 -- -- 90
2020-09-15 08:00:00 17.4 0 Calma 8 Este 0 -- -- 92
2020-09-15 07:00:00 17.4 4 Este 8 Este 0.6 -- -- 91
2020-09-15 06:00:00 18.2 6 Sudeste 9 Este 0 -- -- 90
2020-09-15 05:00:00 18.7 6 Sudeste 8 Este 0 -- -- 89
2020-09-15 04:00:00 19.5 3 Sudoeste 8 Sudoeste 0 -- -- 88
2020-09-15 03:00:00 20.2 3 Sudoeste 9 Oeste 0 -- -- 85
2020-09-15 02:00:00 20.8 5 Oeste 13 Oeste 0 -- -- 83
2020-09-15 01:00:00 21.8 8 Sudoeste 17 Sudoeste 0 -- -- 72
2020-09-15 00:00:00 22.6 7 Sudoeste 11 Sudoeste 0 -- -- 55
2020-09-14 23:00:00 24.1 8 Sudoeste 24 Sudoeste 0 -- -- 50
2020-09-14 22:00:00 25.2 13 Sudoeste 19 Sur 0 -- -- 47
2020-09-14 21:00:00 26.1 15 Sur 27 Sur 0 -- -- 48
2020-09-14 20:00:00 28 9 Sudeste 27 Sur 0 -- -- 40
2020-09-14 19:00:00 29.7 19 Sur 30 Sur 0 -- -- 37
2020-09-14 18:00:00 29.9 17 Sur 28 Sur 0 -- -- 37
2020-09-14 17:00:00 30.5 18 Sur 30 Sur 0 -- -- 36
2020-09-14 16:00:00 30.2 19 Sur 33 Sur 0 -- -- 37
2020-09-14 15:00:00 30.4 17 Sur 25 Sudeste 0 -- -- 37
2020-09-14 14:00:00 31.3 14 Sur 39 Sur 0 -- -- 34
2020-09-14 13:00:00 29.7 23 Sur 34 Sudeste 0 -- -- 37
2020-09-14 12:00:00 27.5 13 Sudeste 22 Sudeste 0 -- -- 42
2020-09-14 11:00:00 25.5 11 Sudeste 16 Sudeste 0 -- -- 48
2020-09-14 10:00:00 24.3 11 Sudeste 15 Sudeste 0 -- -- 56
2020-09-14 09:00:00 19.7 6 Sudeste 10 Este 0 -- -- 65
2020-09-14 08:00:00 19.2 6 Este 10 Sudeste 0 -- -- 66
2020-09-14 07:00:00 19.5 4 Este 8 Este 0 -- -- 67
2020-09-14 06:00:00 19.6 0 Calma 8 Sudeste 0 -- -- 66
2020-09-14 05:00:00 20.4 3 Sudeste 9 Nordeste 0 -- -- 64
2020-09-14 04:00:00 21.3 6 Sudeste 9 Sudeste 0 -- -- 62
2020-09-14 03:00:00 21.7 3 Nordeste 13 Sudeste 0 -- -- 61
2020-09-14 02:00:00 23.7 7 Sudeste 22 Sudeste 0 -- -- 55
2020-09-14 01:00:00 24.4 12 Sudeste 22 Sur 0 -- -- 51
2020-09-14 00:00:00 24.6 15 Sudeste 26 Sur 0 -- -- 51
2020-09-13 23:00:00 25.2 15 Sur 25 Sudeste 0 -- -- 48
2020-09-13 22:00:00 25.8 14 Sudeste 28 Sudeste 0 -- -- 46
2020-09-13 21:00:00 27.3 15 Sur 24 Sur 0 -- -- 42
2020-09-13 20:00:00 29.5 14 Sur 24 Sur 0 -- -- 37
2020-09-13 19:00:00 32 16 Sudoeste 24 Sudoeste 0 -- -- 32
2020-09-13 18:00:00 33.2 14 Sur 23 Sudoeste 0 -- -- 30
2020-09-13 17:00:00 34.3 12 Sur 17 Sur 0 -- -- 24
2020-09-13 16:00:00 34.1 11 Sur 23 Sudeste 0 -- -- 23
2020-09-13 15:00:00 32 15 Sur 26 Sudoeste 0 -- -- 27
2020-09-13 14:00:00 31.4 6 Sur 19 Sudeste 0 -- -- 29
2020-09-13 13:00:00 31.8 10 Sudeste 20 Sudeste 0 -- -- 27
2020-09-13 12:00:00 29.5 13 Sudeste 21 Sudeste 0 -- -- 33
2020-09-13 11:00:00 26.9 13 Sur 19 Sur 0 -- -- 36
2020-09-13 10:00:00 26 2 Norte 5 Norte 0 -- -- 44
2020-09-13 09:00:00 20.8 0 Calma 5 Este 0 -- -- 56
2020-09-13 08:00:00 19.7 4 Este 10 Sudeste 0 -- -- 54
2020-09-13 07:00:00 20.1 4 Sudeste 9 Sudeste 0 -- -- 53
2020-09-13 06:00:00 21.1 4 Este 6 Este 0 -- -- 50
2020-09-13 05:00:00 21.4 3 Este 6 Nordeste 0 -- -- 52
2020-09-13 04:00:00 22 0 Calma 7 Nordeste 0 -- -- 51
2020-09-13 03:00:00 23.3 4 Sudoeste 15 Sudeste 0 -- -- 50
2020-09-13 02:00:00 24.2 11 Sudeste 23 Sudeste 0 -- -- 45
2020-09-13 01:00:00 24.4 14 Sudeste 20 Sudeste 0 -- -- 43
2020-09-13 00:00:00 25.3 13 Sudeste 19 Sudeste 0 -- -- 39
2020-09-12 23:00:00 25.8 9 Sudeste 23 Sudeste 0 -- -- 39
2020-09-12 22:00:00 26.6 14 Sur 25 Sur 0 -- -- 37
2020-09-12 21:00:00 28 15 Sur 24 Sur 0 -- -- 34
2020-09-12 20:00:00 30.6 12 Sur 26 Sur 0 -- -- 29
2020-09-12 19:00:00 33.3 15 Sur 21 Sur 0 -- -- 20
2020-09-12 18:00:00 35.1 10 Sur 16 Sudoeste 0 -- -- 19
2020-09-12 17:00:00 35.8 8 Sur 13 Sur 0 -- -- 21
2020-09-12 16:00:00 35.3 10 Sur 18 Sur 0 -- -- 22
2020-09-12 15:00:00 34.7 8 Sur 16 Sur 0 -- -- 23
2020-09-12 14:00:00 34.1 10 Sudeste 18 Sudeste 0 -- -- 24
2020-09-12 13:00:00 31.7 6 Noroeste 11 Noroeste 0 -- -- 29
2020-09-12 12:00:00 29.8 5 Noroeste 9 Oeste 0 -- -- 32
2020-09-12 11:00:00 27.2 3 Oeste 6 Noroeste 0 -- -- 37
2020-09-12 10:00:00 24.3 2 Noroeste 9 Este 0 -- -- 43
2020-09-12 09:00:00 23.6 4 Este 13 Este 0 -- -- 41
2020-09-12 08:00:00 19.5 3 Sudeste 17 Este 0 -- -- 48
2020-09-12 07:00:00 19.1 6 Nordeste 11 Nordeste 0 -- -- 49
2020-09-12 06:00:00 18.3 6 Este 9 Este 0 -- -- 51
2020-09-12 05:00:00 19 5 Sudeste 8 Nordeste 0 -- -- 49
2020-09-12 04:00:00 19.3 4 Nordeste 8 Norte 0 -- -- 50
2020-09-12 03:00:00 21.3 4 Nordeste 15 Sudeste 0 -- -- 45
2020-09-12 02:00:00 21.9 11 Sudeste 14 Sudeste 0 -- -- 44
2020-09-12 01:00:00 22.9 3 Este 23 Sudeste 0 -- -- 40
2020-09-12 00:00:00 24.5 15 Sudeste 26 Sudeste 0 -- -- 36
2020-09-11 23:00:00 25.1 15 Sudeste 24 Sudeste 0 -- -- 34
2020-09-11 22:00:00 27 15 Sudeste 22 Sur 0 -- -- 30
2020-09-11 21:00:00 28.1 11 Sur 26 Sur 0 -- -- 28
2020-09-11 20:00:00 30.4 12 Sur 22 Sur 0 -- -- 26
2020-09-11 19:00:00 32.1 14 Sur 23 Sudoeste 0 -- -- 25
2020-09-11 18:00:00 32.8 11 Sur 20 Sudoeste 0 -- -- 28
2020-09-11 17:00:00 33.9 11 Sudoeste 15 Sudoeste 0 -- -- 27
2020-09-11 16:00:00 34.3 6 Noroeste 15 Oeste 0 -- -- 26
2020-09-11 15:00:00 31.8 9 Sudoeste 17 Sur 0 -- -- 30
2020-09-11 14:00:00 32.7 10 Sur 14 Sur 0 -- -- 28
2020-09-11 13:00:00 30.9 9 Sudoeste 16 Este 0 -- -- 30
2020-09-11 12:00:00 28.6 5 Sur 15 Este 0 -- -- 35
2020-09-11 11:00:00 26.3 7 Sur 17 Sudeste 0 -- -- 39
2020-09-11 10:00:00 23.6 12 Sudeste 20 Sudeste 0 -- -- 46
2020-09-11 09:00:00 21 9 Sudeste 18 Sudeste 0 -- -- 51
2020-09-11 08:00:00 19.3 13 Sudeste 21 Sudeste 0 -- -- 54
2020-09-11 07:00:00 19.9 16 Sudeste 22 Sudeste 0 -- -- 53
2020-09-11 06:00:00 20.3 13 Sudeste 21 Sudeste 0 -- -- 52
2020-09-11 05:00:00 19.6 15 Sudeste 19 Sudeste 0 -- -- 52
2020-09-11 04:00:00 20.5 13 Sudeste 21 Este 0 -- -- 49
2020-09-11 03:00:00 21.8 14 Sudeste 22 Sudeste 0 -- -- 47
2020-09-11 02:00:00 22.3 15 Sudeste 23 Sudeste 0 -- -- 47
2020-09-11 01:00:00 23.3 12 Sudeste 21 Sudeste 0 -- -- 44
2020-09-11 00:00:00 23.9 13 Sudeste 18 Sudeste 0 -- -- 40
2020-09-10 23:00:00 22.7 4 Sudeste 8 Sudeste 0 -- -- 38
2020-09-10 22:00:00 24.4 0 Calma 3 Sudeste 0 -- -- 35
2020-09-10 21:00:00 28.2 0 Calma 6 Sur 0 -- -- 32
2020-09-10 20:00:00 33.2 4 Sudoeste 8 Este 0 -- -- 24
2020-09-10 19:00:00 33.7 0 Calma 11 Nordeste 0 -- -- 22
2020-09-10 18:00:00 32.6 6 Norte 13 Norte 0 -- -- 24
2020-09-10 17:00:00 33.1 8 Norte 14 Norte 0 -- -- 24
2020-09-10 16:00:00 32.7 9 Noroeste 15 Nordeste 0 -- -- 27
2020-09-10 15:00:00 32 6 Noroeste 15 Noroeste 0 -- -- 29
2020-09-10 14:00:00 30.3 4 Sudeste 14 Oeste 0 -- -- 33
2020-09-10 13:00:00 28.8 7 Noroeste 14 Oeste 0 -- -- 35
2020-09-10 12:00:00 27.9 5 Sur 14 Sur 0 -- -- 37
2020-09-10 11:00:00 26.3 6 Sudeste 14 Sudeste 0 -- -- 40
2020-09-10 10:00:00 23.8 8 Sudeste 14 Sudeste 0 -- -- 48
2020-09-10 09:00:00 20 11 Sudeste 17 Sudeste 0 -- -- 55
2020-09-10 08:00:00 18.5 11 Sudeste 17 Sudeste 0 -- -- 55
2020-09-10 07:00:00 18.7 12 Sudeste 17 Sudeste 0 -- -- 52
2020-09-10 06:00:00 19.1 11 Sudeste 19 Sudeste 0 -- -- 50
2020-09-10 05:00:00 19.4 12 Sudeste 22 Sudeste 0 -- -- 49
2020-09-10 04:00:00 20.3 14 Sudeste 24 Sudeste 0 -- -- 47
2020-09-10 03:00:00 20.4 13 Sudeste 21 Sudeste 0 -- -- 49
2020-09-10 02:00:00 20.9 13 Sudeste 18 Sudeste 0 -- -- 49
2020-09-10 01:00:00 22.1 12 Sudeste 24 Sudeste 0 -- -- 47
2020-09-10 00:00:00 23.4 15 Sudeste 24 Sudeste 0 -- -- 43
2020-09-09 23:00:00 24.5 13 Sudeste 19 Sudeste 0 -- -- 41
2020-09-09 22:00:00 23.9 0 Calma 8 Sur 0 -- -- 39
2020-09-09 21:00:00 27.4 4 Sur 7 Sudoeste 0 -- -- 33
2020-09-09 20:00:00 31.3 6 Sudoeste 17 Oeste 0 -- -- 27
2020-09-09 19:00:00 32.1 7 Oeste 16 Noroeste 0 -- -- 26
2020-09-09 18:00:00 31.7 8 Noroeste 18 Oeste 0 -- -- 30
2020-09-09 17:00:00 31.2 6 Norte 15 Sudoeste 0 -- -- 35
2020-09-09 16:00:00 30.9 9 Oeste 15 Noroeste 0 -- -- 35
2020-09-09 15:00:00 30 9 Oeste 14 Oeste 0 -- -- 38
2020-09-09 14:00:00 29.1 7 Noroeste 14 Oeste 0 -- -- 40
2020-09-09 13:00:00 27.4 6 Noroeste 13 Nordeste 0 -- -- 46
2020-09-09 12:00:00 26 4 Sudeste 10 Noroeste 0 -- -- 49
2020-09-09 11:00:00 24.3 5 Noroeste 13 Sudeste 0 -- -- 57
2020-09-09 10:00:00 22.1 9 Sur 15 Sur 0 -- -- 66
2020-09-09 09:00:00 19.2 2 Sudeste 9 Sudeste 0 -- -- 76
2020-09-09 08:00:00 16.4 6 Este 10 Este 0 -- -- 86
2020-09-09 07:00:00 17 7 Sudeste 10 Sudeste 0.2 -- -- 83
2020-09-09 06:00:00 17.8 8 Sudeste 12 Sudeste 0 -- -- 81
2020-09-09 05:00:00 19 8 Sudeste 16 Sudeste 0 -- -- 79
2020-09-09 04:00:00 19.7 9 Sudeste 15 Sur 0 -- -- 77
2020-09-09 03:00:00 19.9 6 Sudeste 13 Sur 0 -- -- 73
2020-09-09 02:00:00 20 4 Sudoeste 13 Sur 0 -- -- 69
2020-09-09 01:00:00 21 6 Sudoeste 26 Sudeste 0 -- -- 66
2020-09-09 00:00:00 21.5 15 Sudeste 28 Sur 0 -- -- 60
2020-09-08 23:00:00 22.4 17 Sudeste 29 Sudeste 0 -- -- 55
2020-09-08 22:00:00 23 17 Sudeste 35 Sudeste 0 -- -- 55
2020-09-08 21:00:00 24.4 21 Sudeste 33 Sur 0 -- -- 48
2020-09-08 20:00:00 27 18 Sur 32 Sur 0 -- -- 43
2020-09-08 19:00:00 28.7 16 Sur 30 Sur 0 -- -- 42
2020-09-08 18:00:00 29.4 20 Sur 37 Sur 0 -- -- 40
2020-09-08 17:00:00 29.8 21 Sudoeste 39 Sudoeste 0 -- -- 41
2020-09-08 16:00:00 30.7 8 Sudeste 30 Sudoeste 0 -- -- 36
2020-09-08 15:00:00 30.3 13 Sudeste 29 Sur 0 -- -- 37
2020-09-08 14:00:00 29.4 16 Sur 32 Sudeste 0 -- -- 39
2020-09-08 13:00:00 28.6 16 Sudeste 31 Sur 0 -- -- 42
2020-09-08 12:00:00 27.6 19 Sur 32 Sur 0 -- -- 44
2020-09-08 11:00:00 26.6 13 Este 27 Sudeste 0 -- -- 48
2020-09-08 10:00:00 24.6 14 Sudeste 25 Sudeste 0 -- -- 55
2020-09-08 09:00:00 22.1 9 Sudeste 17 Sudeste 0 -- -- 71
2020-09-08 08:00:00 20.3 8 Sudeste 13 Sudeste 0 -- -- 78
2020-09-08 07:00:00 20.6 5 Sudeste 16 Sudeste 0 -- -- 76
2020-09-08 06:00:00 21.2 10 Sudeste 19 Sudeste 0 -- -- 73
2020-09-08 05:00:00 21.4 11 Sudeste 22 Sudeste 0 -- -- 73
2020-09-08 04:00:00 22 16 Sur 30 Sudeste 0 -- -- 72
2020-09-08 03:00:00 22.3 12 Sudeste 27 Sur 0 -- -- 71
2020-09-08 02:00:00 22.9 10 Sudeste 15 Sudeste 0 -- -- 64
2020-09-08 01:00:00 24.2 3 Sur 19 Sudoeste 0 -- -- 49
2020-09-08 00:00:00 25.7 11 Oeste 24 Sudoeste 0 -- -- 47
2020-09-07 23:00:00 26.2 8 Oeste 12 Oeste 0 -- -- 48
2020-09-07 22:00:00 27.8 6 Oeste 12 Oeste 0 -- -- 41
2020-09-07 21:00:00 30 2 Sur 9 Oeste 0 -- -- 34
2020-09-07 20:00:00 34.1 4 Sudoeste 14 Sudoeste 0 -- -- 28
2020-09-07 19:00:00 35.5 5 Oeste 12 Oeste 0 -- -- 26
2020-09-07 18:00:00 35.3 6 Oeste 12 Oeste 0 -- -- 26
2020-09-07 17:00:00 34.5 6 Sudoeste 14 Oeste 0 -- -- 30
2020-09-07 16:00:00 33.3 8 Sudoeste 14 Sudoeste 0 -- -- 34
2020-09-07 15:00:00 32.6 9 Oeste 15 Oeste 0 -- -- 34
2020-09-07 14:00:00 30.6 6 Noroeste 14 Oeste 0 -- -- 40
2020-09-07 13:00:00 29.4 5 Oeste 14 Oeste 0 -- -- 44
2020-09-07 12:00:00 27.7 6 Oeste 12 Oeste 0 -- -- 47
2020-09-07 11:00:00 26.8 4 Oeste 13 Sudeste 0 -- -- 51
2020-09-07 10:00:00 24.4 12 Sudeste 18 Sudeste 0 -- -- 58
2020-09-07 09:00:00 21.8 11 Sudeste 20 Sudeste 0 -- -- 67
2020-09-07 08:00:00 19.7 14 Sudeste 20 Sudeste 0 -- -- 74
2020-09-07 07:00:00 20.6 14 Sudeste 24 Sudeste 0 -- -- 72
2020-09-07 06:00:00 20.6 14 Sudeste 22 Sudeste 0 -- -- 73
2020-09-07 05:00:00 21.1 16 Sudeste 23 Sudeste 0 -- -- 73
2020-09-07 04:00:00 21 12 Sudeste 22 Sudeste 0 -- -- 72
2020-09-07 03:00:00 21.4 11 Sudeste 23 Sudeste 0 -- -- 70
2020-09-07 02:00:00 21.8 13 Sudeste 23 Sudeste 0 -- -- 69
2020-09-07 01:00:00 22.4 17 Sudeste 24 Sudeste 0 -- -- 66
2020-09-07 00:00:00 23.2 14 Sudeste 27 Sudeste 0 -- -- 63
2020-09-06 23:00:00 24.3 20 Sudeste 28 Sudeste 0 -- -- 60
2020-09-06 22:00:00 26.1 14 Sudeste 26 Sudeste 0 -- -- 51
2020-09-06 21:00:00 28.4 14 Sudeste 24 Sur 0 -- -- 44
2020-09-06 20:00:00 32.5 9 Sur 15 Sur 0 -- -- 32
2020-09-06 19:00:00 34.3 6 Sur 14 Sur 0 -- -- 28
2020-09-06 18:00:00 34.2 9 Sudoeste 16 Sur 0 -- -- 30
2020-09-06 17:00:00 33.8 9 Sur 18 Sur 0 -- -- 31
2020-09-06 16:00:00 33.4 11 Sur 24 Sudoeste 0 -- -- 34
2020-09-06 15:00:00 32.7 12 Sur 22 Sudoeste 0 -- -- 36
2020-09-06 14:00:00 31.9 12 Oeste 18 Oeste 0 -- -- 39
2020-09-06 13:00:00 30.6 8 Sudeste 19 Este 0 -- -- 38
2020-09-06 12:00:00 29.5 7 Sudeste 21 Sudeste 0 -- -- 42
2020-09-06 11:00:00 26.9 9 Este 18 Este 0 -- -- 51
2020-09-06 10:00:00 23.9 9 Sudeste 17 Sudeste 0 -- -- 62
2020-09-06 09:00:00 21.4 6 Sudeste 11 Sudeste 0 -- -- 72
2020-09-06 08:00:00 18.5 3 Nordeste 10 Sudeste 0 -- -- 81
2020-09-06 07:00:00 19.6 8 Sudeste 14 Este 0 -- -- 79
2020-09-06 06:00:00 20 8 Sudeste 19 Sur 0 -- -- 78
2020-09-06 05:00:00 20.5 8 Sur 18 Sur 0 -- -- 76
2020-09-06 04:00:00 20.9 9 Sur 19 Sur 0 -- -- 75
2020-09-06 03:00:00 21.1 9 Sur 31 Sur 0 -- -- 73
2020-09-06 02:00:00 21.6 22 Sudeste 42 Sudeste 0 -- -- 70
2020-09-06 01:00:00 22.1 17 Sudeste 28 Sudeste 0 -- -- 65
2020-09-06 00:00:00 22.9 19 Sudeste 34 Sudeste 0 -- -- 59
2020-09-05 23:00:00 24 22 Sudeste 39 Sudeste 0 -- -- 54
2020-09-05 22:00:00 25.8 19 Sudeste 30 Sudeste 0 -- -- 42
2020-09-05 21:00:00 28.4 14 Sudeste 22 Sudeste 0 -- -- 33
2020-09-05 20:00:00 32.2 10 Sur 16 Sur 0 -- -- 31
2020-09-05 19:00:00 34.1 6 Sudoeste 14 Sudoeste 0 -- -- 31
2020-09-05 18:00:00 33.8 6 Noroeste 14 Sudoeste 0 -- -- 32
2020-09-05 17:00:00 33.5 9 Sudoeste 17 Sudoeste 0 -- -- 33
2020-09-05 16:00:00 32.8 6 Noroeste 15 Sudoeste 0 -- -- 36
2020-09-05 15:00:00 32.3 5 Oeste 15 Oeste 0 -- -- 38
2020-09-05 14:00:00 31 7 Oeste 14 Oeste 0 -- -- 40
2020-09-05 13:00:00 29.8 5 Sudoeste 14 Sur 0 -- -- 40
2020-09-05 12:00:00 27.8 4 Este 17 Sudeste 0 -- -- 45
2020-09-05 11:00:00 25.8 8 Sudeste 16 Este 0 -- -- 50
2020-09-05 10:00:00 23.6 7 Sudeste 14 Sudeste 0 -- -- 62
2020-09-05 09:00:00 20.8 5 Este 8 Este 0 -- -- 66
2020-09-05 08:00:00 17.6 3 Este 18 Este 0 -- -- 83
2020-09-05 07:00:00 18.2 7 Este 15 Sur 0 -- -- 82
2020-09-05 06:00:00 19.3 8 Sudeste 16 Sudeste 0 -- -- 81
2020-09-05 05:00:00 19.5 10 Sudeste 23 Sur 0 -- -- 78
2020-09-05 04:00:00 20.1 14 Sudeste 22 Sudeste 0 -- -- 75
2020-09-05 03:00:00 20.4 12 Sudeste 21 Sudeste 0 -- -- 70
2020-09-05 02:00:00 21 12 Sudeste 24 Sur 0 -- -- 69
2020-09-05 01:00:00 21.7 15 Sudeste 27 Sudeste 0 -- -- 65
2020-09-05 00:00:00 22.8 18 Sudeste 34 Sudeste 0 -- -- 58
2020-09-04 23:00:00 23.6 20 Sudeste 31 Sur 0 -- -- 54
2020-09-04 22:00:00 24.3 18 Sudeste 33 Sudeste 0 -- -- 51
2020-09-04 21:00:00 25.9 20 Sudeste 31 Sur 0 -- -- 41
2020-09-04 20:00:00 28.7 18 Sur 31 Sur 0 -- -- 33
2020-09-04 19:00:00 30.8 18 Sur 29 Sur 0 -- -- 31
2020-09-04 18:00:00 32.2 19 Sur 29 Sudoeste 0 -- -- 28
2020-09-04 17:00:00 34.4 7 Sudoeste 14 Sudoeste 0 -- -- 23
2020-09-04 16:00:00 33.3 6 Nordeste 16 Oeste 0 -- -- 22
2020-09-04 15:00:00 33.1 6 Sur 21 Este 0 -- -- 22
2020-09-04 14:00:00 31.1 6 Noroeste 14 Sur 0 -- -- 28
2020-09-04 13:00:00 29.4 5 Noroeste 10 Oeste 0 -- -- 38
2020-09-04 12:00:00 27.3 3 Norte 8 Noroeste 0 -- -- 43
2020-09-04 11:00:00 25.6 5 Noroeste 8 Noroeste 0 -- -- 45
2020-09-04 10:00:00 24.2 3 Oeste 9 Este 0 -- -- 50
2020-09-04 09:00:00 20.6 3 Sudeste 11 Sudeste 0 -- -- 63
2020-09-04 08:00:00 16.4 5 Sudeste 9 Sudeste 0 -- -- 73
2020-09-04 07:00:00 16.8 4 Sudeste 7 Este 0 -- -- 72
2020-09-04 06:00:00 18.3 0 Calma 11 Este 0 -- -- 71
2020-09-04 05:00:00 18.5 5 Este 9 Este 0 -- -- 67
2020-09-04 04:00:00 19.5 3 Este 8 Nordeste 0 -- -- 63
2020-09-04 03:00:00 20.8 6 Sudeste 15 Sudeste 0 -- -- 57
2020-09-04 02:00:00 21.2 7 Este 22 Sudeste 0 -- -- 54
2020-09-04 01:00:00 22.6 12 Sudeste 21 Sudeste 0 -- -- 49
2020-09-04 00:00:00 23.3 12 Sudeste 23 Sudeste 0 -- -- 51
2020-09-03 23:00:00 23.7 14 Sudeste 26 Sur 0 -- -- 53
2020-09-03 22:00:00 24.7 15 Sur 26 Sudeste 0 -- -- 52
2020-09-03 21:00:00 26.5 13 Sur 27 Sur 0 -- -- 45
2020-09-03 20:00:00 29.1 17 Sur 32 Sudoeste 0 -- -- 38
2020-09-03 19:00:00 31.1 20 Sur 28 Sur 0 -- -- 33
2020-09-03 18:00:00 32.1 15 Sudoeste 25 Sur 0 -- -- 31
2020-09-03 17:00:00 32.4 17 Sudoeste 27 Sur 0 -- -- 34
2020-09-03 16:00:00 33.3 12 Sur 18 Oeste 0 -- -- 28
2020-09-03 15:00:00 32.5 8 Sudeste 17 Sudeste 0 -- -- 29
2020-09-03 14:00:00 31.4 9 Sudoeste 16 Este 0 -- -- 31
2020-09-03 13:00:00 30.4 8 Sudeste 20 Sur 0 -- -- 32
2020-09-03 12:00:00 27.7 10 Este 16 Este 0 -- -- 42
2020-09-03 11:00:00 24.9 5 Noroeste 7 Noroeste 0 -- -- 47
2020-09-03 10:00:00 23.3 3 Noroeste 6 Nordeste 0 -- -- 53
2020-09-03 09:00:00 19 0 Calma 7 Este 0 -- -- 69
2020-09-03 08:00:00 16.5 2 Este 8 Norte 0 -- -- 70
2020-09-03 07:00:00 17.3 3 Nordeste 12 Este 0 -- -- 66
2020-09-03 06:00:00 18.5 6 Sudeste 14 Sudeste 0 -- -- 63
2020-09-03 05:00:00 18.1 4 Este 13 Sudeste 0 -- -- 63
2020-09-03 04:00:00 18.9 8 Sudeste 13 Sudeste 0 -- -- 63
2020-09-03 03:00:00 19 8 Sudeste 11 Sudeste 0 -- -- 60
2020-09-03 02:00:00 20.8 2 Nordeste 14 Sudeste 0 -- -- 53
2020-09-03 01:00:00 21.9 6 Sur 23 Sudeste 0 -- -- 50
2020-09-03 00:00:00 22.4 14 Sudeste 30 Sur 0 -- -- 49
2020-09-02 23:00:00 23.6 20 Sudeste 32 Sudeste 0 -- -- 46
2020-09-02 22:00:00 24.6 18 Sudeste 28 Sudeste 0 -- -- 41
2020-09-02 21:00:00 26.2 17 Sur 26 Sudeste 0 -- -- 37
2020-09-02 20:00:00 29.1 16 Sur 27 Sudeste 0 -- -- 33
2020-09-02 19:00:00 32.1 11 Sur 21 Sudoeste 0 -- -- 29
2020-09-02 18:00:00 32.9 9 Noroeste 17 Noroeste 0 -- -- 25
2020-09-02 17:00:00 32.2 8 Oeste 20 Noroeste 0 -- -- 27
2020-09-02 16:00:00 31.5 11 Oeste 18 Oeste 0 -- -- 28
2020-09-02 15:00:00 30.4 9 Oeste 18 Noroeste 0 -- -- 29
2020-09-02 14:00:00 29.1 9 Oeste 15 Oeste 0 -- -- 32
2020-09-02 13:00:00 27.8 5 Noroeste 12 Noroeste 0 -- -- 35
2020-09-02 12:00:00 25.6 6 Noroeste 14 Norte 0 -- -- 38
2020-09-02 11:00:00 23.8 4 Norte 11 Norte 0 -- -- 42
2020-09-02 10:00:00 21 4 Oeste 7 Este 0 -- -- 48
2020-09-02 09:00:00 19.1 2 Este 14 Sudeste 0 -- -- 52
2020-09-02 08:00:00 16.7 11 Sudeste 18 Sudeste 0 -- -- 57
2020-09-02 07:00:00 17.2 14 Sudeste 20 Sudeste 0 -- -- 55
2020-09-02 06:00:00 17.5 13 Sudeste 18 Sudeste 0 -- -- 59
2020-09-02 05:00:00 17.9 11 Sudeste 15 Sudeste 0 -- -- 64
2020-09-02 04:00:00 17.4 9 Sudeste 14 Sudeste 0 -- -- 66
2020-09-02 03:00:00 16.4 0 Calma 12 Sudeste 0 -- -- 68
2020-09-02 02:00:00 17.9 7 Sudeste 11 Sudeste 0 -- -- 64
2020-09-02 01:00:00 20 4 Sudeste 18 Oeste 0 -- -- 57
2020-09-02 00:00:00 21.3 12 Oeste 19 Oeste 0 -- -- 50
2020-09-01 23:00:00 22.5 10 Oeste 22 Oeste 0 -- -- 43
2020-09-01 22:00:00 22.3 2 Sudoeste 6 Sudoeste 0 -- -- 53
2020-09-01 21:00:00 26.2 0 Calma 12 Oeste 0 -- -- 35
2020-09-01 20:00:00 29.5 7 Oeste 14 Oeste 0 -- -- 30
2020-09-01 19:00:00 29.8 12 Oeste 21 Oeste 0 -- -- 29
2020-09-01 18:00:00 30.4 9 Oeste 18 Oeste 0 -- -- 28
2020-09-01 17:00:00 30 7 Sur 19 Oeste 0 -- -- 30
2020-09-01 16:00:00 29 6 Oeste 22 Oeste 0 -- -- 36
2020-09-01 15:00:00 27.9 7 Oeste 15 Sudoeste 0 -- -- 38
2020-09-01 14:00:00 26.4 9 Sudoeste 18 Sudoeste 0 -- -- 39
2020-09-01 13:00:00 25.2 6 Sudeste 17 Sudeste 0 -- -- 46
2020-09-01 12:00:00 23.2 13 Sudeste 23 Sudeste 0 -- -- 52
2020-09-01 11:00:00 22.2 11 Sudeste 21 Sudeste 0 -- -- 55
2020-09-01 10:00:00 20.6 12 Sudeste 19 Sudeste 0 -- -- 59
2020-09-01 09:00:00 18.2 13 Sudeste 19 Sudeste 0 -- -- 66
2020-09-01 08:00:00 17.6 12 Sudeste 19 Este 0 -- -- 64
2020-09-01 07:00:00 17.6 16 Sudeste 20 Sudeste 0 -- -- 67
2020-09-01 06:00:00 17.4 15 Sudeste 17 Sudeste 0 -- -- 68
2020-09-01 05:00:00 16.4 5 Este 13 Sudeste 0 -- -- 72
2020-09-01 04:00:00 17.3 3 Sudoeste 8 Sudeste 0 -- -- 71
2020-09-01 03:00:00 19 3 Sudeste 18 Sudeste 0 -- -- 65
2020-09-01 02:00:00 20.2 13 Sudeste 25 Sudeste 0 -- -- 61
2020-09-01 01:00:00 21.6 15 Sudeste 32 Sudeste 0 -- -- 60
2020-09-01 00:00:00 22.1 17 Sudeste 29 Sudeste 0 -- -- 57
2020-08-31 23:00:00 22.9 14 Sudeste 27 Sudeste 0 -- -- 45
2020-08-31 22:00:00 23.8 14 Sudeste 24 Sudeste 0 -- -- 42
2020-08-31 21:00:00 25.1 9 Sur 34 Sur 0 -- -- 37
2020-08-31 20:00:00 27.8 21 Sur 31 Sur 0 -- -- 32
2020-08-31 19:00:00 29.2 17 Sudoeste 27 Sur 0 -- -- 31
2020-08-31 18:00:00 30.9 17 Sudoeste 29 Sudoeste 0 -- -- 29
2020-08-31 17:00:00 32.2 12 Sur 21 Sur 0 -- -- 26
2020-08-31 16:00:00 31.3 10 Sudeste 22 Este 0 -- -- 29
2020-08-31 15:00:00 30.4 6 Este 23 Este 0 -- -- 32
2020-08-31 14:00:00 29.2 9 Sudeste 22 Sudeste 0 -- -- 34
2020-08-31 13:00:00 27.9 9 Sudeste 18 Sudeste 0 -- -- 37
2020-08-31 12:00:00 26.9 6 Sudeste 22 Este 0 -- -- 40
2020-08-31 11:00:00 25.2 12 Sudeste 22 Sudeste 0 -- -- 44
2020-08-31 10:00:00 22.8 9 Este 14 Este 0 -- -- 48
2020-08-31 09:00:00 18.9 3 Nordeste 8 Este 0 -- -- 57
2020-08-31 08:00:00 15.1 5 Oeste 12 Sudeste 0 -- -- 63
2020-08-31 07:00:00 16.5 10 Sudeste 12 Sudeste 0 -- -- 55
2020-08-31 06:00:00 16.4 8 Sudeste 12 Este 0 -- -- 58
2020-08-31 05:00:00 16.7 8 Sudeste 13 Sudeste 0 -- -- 63
2020-08-31 04:00:00 17.5 7 Sudeste 18 Sudeste 0 -- -- 70
2020-08-31 03:00:00 19.1 12 Sudeste 21 Sudeste 0 -- -- 66
2020-08-31 02:00:00 20.1 12 Sudeste 20 Sudeste 0 -- -- 60
2020-08-31 01:00:00 20.1 10 Sudeste 17 Sudeste 0 -- -- 42
2020-08-31 00:00:00 20.3 9 Este 19 Sudeste 0 -- -- 45
2020-08-30 23:00:00 22.2 9 Sudeste 14 Sur 0 -- -- 34
2020-08-30 22:00:00 22.3 4 Este 7 Este 0 -- -- 28
2020-08-30 21:00:00 26.6 3 Este 9 Noroeste 0 -- -- 23
2020-08-30 20:00:00 29.9 6 Noroeste 11 Oeste 0 -- -- 20
2020-08-30 19:00:00 30.7 7 Oeste 17 Noroeste 0 -- -- 18
2020-08-30 18:00:00 29.2 6 Nordeste 16 Oeste 0 -- -- 19
2020-08-30 17:00:00 30 7 Norte 20 Sudoeste 0 -- -- 19
2020-08-30 16:00:00 29.8 7 Oeste 19 Norte 0 -- -- 20
2020-08-30 15:00:00 28.9 9 Norte 24 Noroeste 0 -- -- 20
2020-08-30 14:00:00 28.3 8 Nordeste 22 Noroeste 0 -- -- 22
2020-08-30 13:00:00 27.5 6 Noroeste 17 Noroeste 0 -- -- 25
2020-08-30 12:00:00 25.5 5 Norte 12 Norte 0 -- -- 30
2020-08-30 11:00:00 22.9 6 Norte 12 Nordeste 0 -- -- 36
2020-08-30 10:00:00 19.6 3 Norte 8 Este 0 -- -- 42
2020-08-30 09:00:00 17 3 Este 6 Sudeste 0 -- -- 45
2020-08-30 08:00:00 16.6 5 Este 8 Sudeste 0 -- -- 43
2020-08-30 07:00:00 17 0 Calma 18 Nordeste 0 -- -- 42
2020-08-30 06:00:00 19.1 11 Nordeste 22 Nordeste 0 -- -- 36
2020-08-30 05:00:00 19.6 11 Nordeste 17 Nordeste 0 -- -- 34
2020-08-30 04:00:00 18.3 9 Nordeste 16 Nordeste 0 -- -- 35
2020-08-30 03:00:00 18.1 8 Nordeste 13 Nordeste 0 -- -- 36
2020-08-30 02:00:00 17.6 5 Nordeste 10 Nordeste 0 -- -- 38
2020-08-30 01:00:00 18.4 5 Este 7 Este 0 -- -- 36
2020-08-30 00:00:00 20 3 Nordeste 10 Noroeste 0 -- -- 32
2020-08-29 23:00:00 22 6 Noroeste 13 Noroeste 0 -- -- 28
2020-08-29 22:00:00 23.3 9 Noroeste 21 Noroeste 0 -- -- 29
2020-08-29 21:00:00 25.5 16 Noroeste 28 Norte 0 -- -- 25
2020-08-29 20:00:00 28.3 16 Noroeste 35 Oeste 0 -- -- 24
2020-08-29 19:00:00 29.3 5 Sudeste 14 Este 0 -- -- 23
2020-08-29 18:00:00 29.2 7 Sudoeste 15 Sudoeste 0 -- -- 23
2020-08-29 17:00:00 28.1 10 Noroeste 27 Oeste 0 -- -- 25
2020-08-29 16:00:00 27.3 11 Noroeste 35 Oeste 0 -- -- 24
2020-08-29 15:00:00 26.1 19 Oeste 37 Oeste 0 -- -- 27
2020-08-29 14:00:00 24.5 18 Oeste 28 Sudoeste 0 -- -- 29
2020-08-29 13:00:00 23.1 17 Oeste 26 Oeste 0 -- -- 37
2020-08-29 12:00:00 21.6 17 Oeste 28 Oeste 0 -- -- 44
2020-08-29 11:00:00 20.1 14 Oeste 24 Sudoeste 0 -- -- 49
2020-08-29 10:00:00 18.5 12 Oeste 21 Oeste 0 -- -- 55
2020-08-29 09:00:00 16.4 6 Sudoeste 14 Sudoeste 0 -- -- 58
2020-08-29 08:00:00 15.3 9 Sudoeste 12 Sudoeste 0 -- -- 58
2020-08-29 07:00:00 15.8 4 Sudoeste 11 Oeste 0 -- -- 54
2020-08-29 06:00:00 16.1 5 Sudoeste 9 Sudoeste 2.8 -- -- 49
2020-08-29 05:00:00 16.7 2 Sudeste 9 Sudoeste 0 -- -- 48
2020-08-29 04:00:00 17.9 0 Calma 15 Oeste 0 -- -- 43
2020-08-29 03:00:00 19.7 8 Oeste 16 Oeste 0 -- -- 41
2020-08-29 02:00:00 20.4 5 Oeste 10 Oeste 0 -- -- 44
2020-08-29 01:00:00 22.2 5 Oeste 12 Oeste 0 -- -- 32
2020-08-29 00:00:00 24.2 6 Oeste 13 Noroeste 0 -- -- 34
2020-08-28 23:00:00 26.6 10 Oeste 31 Sudoeste 0 -- -- 31
2020-08-28 22:00:00 28.1 18 Sudoeste 39 Sudoeste 0 -- -- 47
2020-08-28 21:00:00 29.7 20 Sudoeste 36 Sudoeste 0 -- -- 44
2020-08-28 20:00:00 32.1 21 Oeste 35 Oeste 0 -- -- 37
2020-08-28 19:00:00 33.7 18 Sudoeste 37 Sudoeste 0 -- -- 33
2020-08-28 18:00:00 34.4 17 Oeste 29 Oeste 0 -- -- 32
2020-08-28 17:00:00 33 17 Oeste 35 Sudoeste 0 -- -- 35
2020-08-28 16:00:00 34 14 Oeste 33 Oeste 0 -- -- 35
2020-08-28 15:00:00 32.5 18 Oeste 34 Oeste 0 -- -- 39
2020-08-28 14:00:00 31.2 19 Oeste 29 Sudoeste 0 -- -- 41
2020-08-28 13:00:00 29.8 15 Oeste 27 Oeste 0 -- -- 42
2020-08-28 12:00:00 27.9 12 Oeste 18 Oeste 0 -- -- 49
2020-08-28 11:00:00 25.7 8 Oeste 17 Sudoeste 0 -- -- 54
2020-08-28 10:00:00 23.9 8 Sudoeste 15 Sudoeste 0 -- -- 59
2020-08-28 09:00:00 22.4 5 Sudoeste 10 Oeste 0 -- -- 58
2020-08-28 08:00:00 20 0 Calma 8 Sudeste 0 -- -- 68
2020-08-28 07:00:00 21 5 Sudeste 8 Sudeste 0 -- -- 55
2020-08-28 06:00:00 21.4 2 Sudeste 10 Sudeste 0 -- -- 53
2020-08-28 05:00:00 22.1 4 Sudeste 7 Sur 0 -- -- 51
2020-08-28 04:00:00 22.7 4 Sudeste 6 Sudeste 0 -- -- 50
2020-08-28 03:00:00 23.9 2 Sur 9 Sudeste 0 -- -- 48
2020-08-28 02:00:00 25.2 4 Sudeste 11 Oeste 0 -- -- 45
2020-08-28 01:00:00 27 5 Sudoeste 17 Oeste 0 -- -- 47
2020-08-28 00:00:00 28.6 9 Sudoeste 22 Sudoeste 0 -- -- 38
2020-08-27 23:00:00 30.1 11 Sudoeste 22 Sudoeste 0 -- -- 32
2020-08-27 22:00:00 30.8 9 Sudoeste 19 Sudoeste 0 -- -- 28
2020-08-27 21:00:00 32.5 9 Sudoeste 18 Sudoeste 0 -- -- 27
2020-08-27 20:00:00 35.3 14 Sudoeste 18 Sudoeste 0 -- -- 20
2020-08-27 19:00:00 37.8 6 Oeste 11 Sudoeste 0 -- -- 18
2020-08-27 18:00:00 38.9 5 Oeste 10 Oeste 0 -- -- 17
2020-08-27 17:00:00 38.8 4 Oeste 8 Oeste 0 -- -- 17
2020-08-27 16:00:00 38.8 6 Oeste 10 Oeste 0 -- -- 19
2020-08-27 15:00:00 37.8 7 Oeste 10 Sudoeste 0 -- -- 21
2020-08-27 14:00:00 36.5 9 Oeste 11 Oeste 0 -- -- 26
2020-08-27 13:00:00 35.1 8 Oeste 10 Oeste 0 -- -- 29
2020-08-27 12:00:00 32.8 5 Sudoeste 12 Sur 0 -- -- 30
2020-08-27 11:00:00 30.7 7 Sur 19 Sudeste 0 -- -- 36
2020-08-27 10:00:00 28.4 12 Sudeste 22 Sudeste 0 -- -- 38
2020-08-27 09:00:00 25.3 13 Sudeste 19 Sudeste 0 -- -- 45
2020-08-27 08:00:00 23 12 Sudeste 16 Sudeste 0 -- -- 49
2020-08-27 07:00:00 23.4 12 Sudeste 17 Sudeste 0.2 -- -- 48
2020-08-27 06:00:00 24.4 11 Sudeste 15 Sudeste 0 -- -- 47
2020-08-27 05:00:00 24.9 9 Sudeste 15 Sudeste 0 -- -- 47
2020-08-27 04:00:00 25.4 13 Sudeste 15 Sudeste 0 -- -- 45
2020-08-27 03:00:00 26.5 13 Sudeste 16 Sudeste 0 -- -- 42
2020-08-27 02:00:00 26.1 9 Sudeste 13 Sudeste 0 -- -- 46
2020-08-27 01:00:00 26.8 6 Sudeste 8 Este 0 -- -- 44
2020-08-27 00:00:00 28.5 4 Sur 9 Sudoeste 0 -- -- 40
2020-08-26 23:00:00 29.5 4 Sur 10 Sudoeste 0 -- -- 36
2020-08-26 22:00:00 31.3 4 Sudoeste 13 Sudoeste 0 -- -- 34
2020-08-26 21:00:00 33.9 5 Sudoeste 12 Sudoeste 0 -- -- 30
2020-08-26 20:00:00 37.6 5 Sudoeste 10 Sudoeste 0 -- -- 25
2020-08-26 19:00:00 37.2 6 Sudoeste 10 Sudoeste 0 -- -- 24
2020-08-26 18:00:00 39.3 3 Oeste 6 Oeste 0 -- -- 21
2020-08-26 17:00:00 38.5 5 Oeste 7 Oeste 0 -- -- 20
2020-08-26 16:00:00 38.1 6 Oeste 9 Sudoeste 0 -- -- 23
2020-08-26 15:00:00 37.4 8 Oeste 9 Noroeste 0 -- -- 24
2020-08-26 14:00:00 35.3 4 Oeste 10 Oeste 0 -- -- 31
2020-08-26 13:00:00 33.3 6 Oeste 10 Noroeste 0 -- -- 36
2020-08-26 12:00:00 31.8 5 Noroeste 9 Noroeste 0 -- -- 39
2020-08-26 11:00:00 29.9 5 Norte 11 Norte 0 -- -- 45
2020-08-26 10:00:00 27.9 6 Sudeste 15 Sudeste 0 -- -- 47
2020-08-26 09:00:00 24.8 0 Calma 9 Sudeste 0 -- -- 55
2020-08-26 08:00:00 21.5 0 Calma 12 Sudeste 0 -- -- 61
2020-08-26 07:00:00 21.3 9 Sudeste 12 Sudeste 0 -- -- 62
2020-08-26 06:00:00 21.1 6 Sudeste 9 Sudeste 0 -- -- 61
2020-08-26 05:00:00 22 2 Este 4 Sudeste 0 -- -- 59
2020-08-26 04:00:00 23.6 2 Este 15 Sudeste 0 -- -- 55
2020-08-26 03:00:00 24.8 11 Sudeste 18 Sudeste 0 -- -- 52
2020-08-26 02:00:00 25.4 14 Sudeste 20 Sudeste 0 -- -- 50
2020-08-26 01:00:00 26.4 10 Sudeste 18 Sudeste 0 -- -- 46
2020-08-26 00:00:00 27.8 14 Sudeste 20 Sudeste 0 -- -- 41
2020-08-25 23:00:00 29.2 14 Sudeste 21 Sur 0 -- -- 37
2020-08-25 22:00:00 31 13 Sur 17 Sur 0 -- -- 33
2020-08-25 21:00:00 34 2 Sur 9 Oeste 0 -- -- 33
2020-08-25 20:00:00 36.7 8 Oeste 10 Oeste 0 -- -- 29
2020-08-25 19:00:00 38 6 Oeste 8 Oeste 0 -- -- 25
2020-08-25 18:00:00 38.2 6 Oeste 8 Oeste 0 -- -- 25
2020-08-25 17:00:00 37.8 6 Sur 9 Oeste 0 -- -- 24
2020-08-25 16:00:00 36.7 6 Sudoeste 10 Oeste 0 -- -- 31
2020-08-25 15:00:00 35 7 Noroeste 12 Oeste 0 -- -- 35
2020-08-25 14:00:00 33.7 8 Noroeste 14 Noroeste 0 -- -- 39
2020-08-25 13:00:00 31.6 6 Oeste 14 Norte 0 -- -- 45
2020-08-25 12:00:00 30.7 8 Norte 15 Norte 0 -- -- 48
2020-08-25 11:00:00 28.5 4 Noroeste 12 Este 0 -- -- 55
2020-08-25 10:00:00 26.1 5 Noroeste 18 Sudeste 0 -- -- 66
2020-08-25 09:00:00 23.7 12 Sudeste 20 Sudeste 0 -- -- 70
2020-08-25 08:00:00 21.4 11 Sudeste 18 Sudeste 0 -- -- 83
2020-08-25 07:00:00 21.6 12 Sudeste 17 Este 0 -- -- 83
2020-08-25 06:00:00 21.9 12 Sudeste 17 Sudeste 0 -- -- 81
2020-08-25 05:00:00 22.9 12 Sudeste 23 Sudeste 0 -- -- 78
2020-08-25 04:00:00 23.1 13 Sudeste 19 Sudeste 0 -- -- 78
2020-08-25 03:00:00 23.6 10 Sudeste 19 Sudeste 0 -- -- 77
2020-08-25 02:00:00 24 12 Sudeste 25 Sudeste 0 -- -- 74
2020-08-25 01:00:00 25 15 Sudeste 23 Sudeste 0 -- -- 70
2020-08-25 00:00:00 26.1 13 Sudeste 22 Sudeste 0 -- -- 64
2020-08-24 23:00:00 27.4 12 Sur 26 Sur 0 -- -- 56
2020-08-24 22:00:00 29.2 16 Sudeste 24 Sudeste 0 -- -- 49
2020-08-24 21:00:00 31.7 8 Sur 16 Sur 0 -- -- 39
2020-08-24 20:00:00 35.3 10 Sudoeste 14 Sur 0 -- -- 29
2020-08-24 19:00:00 36.3 8 Sur 18 Sur 0 -- -- 23
2020-08-24 18:00:00 36 7 Sur 12 Sur 0 -- -- 29
2020-08-24 17:00:00 35.7 7 Sudoeste 14 Oeste 0 -- -- 31
2020-08-24 16:00:00 34.7 10 Sudoeste 17 Sudoeste 0 -- -- 37
2020-08-24 15:00:00 34.3 10 Sur 16 Oeste 0 -- -- 38
2020-08-24 14:00:00 33.1 8 Oeste 15 Sur 0 -- -- 40
2020-08-24 13:00:00 31.7 6 Oeste 17 Sudeste 0 -- -- 43
2020-08-24 12:00:00 29.8 8 Sur 18 Sur 0 -- -- 49
2020-08-24 11:00:00 27.8 13 Sudeste 22 Sur 0 -- -- 58
2020-08-24 10:00:00 25.3 16 Sudeste 24 Sur 0 -- -- 68
2020-08-24 09:00:00 23.7 13 Sudeste 21 Sudeste 0 -- -- 75
2020-08-24 08:00:00 21 11 Sudeste 22 Sudeste 0 -- -- 82
2020-08-24 07:00:00 21.4 11 Sudeste 19 Sudeste 0 -- -- 80
2020-08-24 06:00:00 22 13 Sudeste 24 Sudeste 0 -- -- 76
2020-08-24 05:00:00 22.9 17 Sudeste 24 Sudeste 0 -- -- 75
2020-08-24 04:00:00 22.8 14 Sudeste 21 Sudeste 0 -- -- 74
2020-08-24 03:00:00 23 15 Sudeste 22 Sudeste 0 -- -- 71
2020-08-24 02:00:00 24.2 12 Sudeste 22 Sudeste 0 -- -- 64
2020-08-24 01:00:00 24.9 14 Sudeste 18 Sudeste 0 -- -- 46
2020-08-24 00:00:00 25.3 4 Sudoeste 16 Sudoeste 0 -- -- 30
2020-08-23 23:00:00 26.5 6 Sudoeste 13 Sur 0 -- -- 38
2020-08-23 22:00:00 27.7 10 Sur 16 Sur 0 -- -- 22
2020-08-23 21:00:00 33 4 Sudoeste 13 Oeste 0 -- -- 18
2020-08-23 20:00:00 36.4 9 Oeste 12 Oeste 0 -- -- 15
2020-08-23 19:00:00 37.5 8 Oeste 10 Oeste 0 -- -- 13
2020-08-23 18:00:00 37.5 9 Oeste 10 Oeste 0 -- -- 16
2020-08-23 17:00:00 37.4 6 Oeste 11 Sudoeste 0 -- -- 18
2020-08-23 16:00:00 36.3 7 Oeste 10 Oeste 0 -- -- 20
2020-08-23 15:00:00 35.8 7 Oeste 12 Oeste 0 -- -- 24
2020-08-23 14:00:00 34 6 Oeste 12 Oeste 0 -- -- 24
2020-08-23 13:00:00 32.4 5 Oeste 9 Noroeste 0 -- -- 26
2020-08-23 12:00:00 30.9 6 Noroeste 12 Noroeste 0 -- -- 26
2020-08-23 11:00:00 28.4 4 Norte 8 Noroeste 0 -- -- 38
2020-08-23 10:00:00 26.2 4 Noroeste 6 Noroeste 0 -- -- 43
2020-08-23 09:00:00 22.8 2 Este 7 Este 0 -- -- 51
2020-08-23 08:00:00 18.3 0 Calma 11 Este 0 -- -- 59
2020-08-23 07:00:00 20.2 0 Calma 12 Sudeste 0 -- -- 54
2020-08-23 06:00:00 20.4 6 Sudeste 11 Sudeste 0 -- -- 53
2020-08-23 05:00:00 21.1 10 Sudeste 12 Sudeste 0 -- -- 50
2020-08-23 04:00:00 20.9 3 Sudeste 10 Sudeste 0 -- -- 51
2020-08-23 03:00:00 21.9 4 Sur 10 Sudeste 0 -- -- 51
2020-08-23 02:00:00 23.6 0 Calma 6 Sur 0 -- -- 54
2020-08-23 01:00:00 25.5 2 Sur 10 Oeste 0 -- -- 47
2020-08-23 00:00:00 27 8 Oeste 17 Sudoeste 0 -- -- 43
2020-08-22 23:00:00 26.5 2 Sudoeste 4 Sudoeste 0 -- -- 43
2020-08-22 22:00:00 28.5 0 Calma 4 Sudoeste 0 -- -- 41
2020-08-22 21:00:00 33.3 3 Sur 11 Oeste 0 -- -- 32
2020-08-22 20:00:00 36.2 8 Sudoeste 11 Oeste 0 -- -- 28
2020-08-22 19:00:00 36.7 6 Oeste 10 Oeste 0 -- -- 28
2020-08-22 18:00:00 36.7 8 Oeste 12 Sudoeste 0 -- -- 31
2020-08-22 17:00:00 35.9 6 Sudoeste 10 Sudoeste 0 -- -- 34
2020-08-22 16:00:00 34.7 5 Noroeste 15 Oeste 0 -- -- 36
2020-08-22 15:00:00 34.3 8 Oeste 16 Noroeste 0 -- -- 36
2020-08-22 14:00:00 32.9 8 Oeste 19 Noroeste 0 -- -- 42
2020-08-22 13:00:00 31.5 7 Noroeste 15 Noroeste 0 -- -- 45
2020-08-22 12:00:00 29.6 5 Noroeste 12 Noroeste 0 -- -- 50
2020-08-22 11:00:00 27.6 5 Noroeste 8 Noroeste 0 -- -- 57
2020-08-22 10:00:00 25 4 Sudoeste 10 Sudoeste 0 -- -- 65
2020-08-22 09:00:00 24 0 Calma 3 Este 0 -- -- 65
2020-08-22 08:00:00 18.9 0 Calma 10 Sudeste 0 -- -- 80
2020-08-22 07:00:00 18.9 5 Sudeste 8 Sudeste 0 -- -- 79
2020-08-22 06:00:00 19.2 3 Sudeste 10 Sudeste 0 -- -- 76
2020-08-22 05:00:00 19.6 5 Sudeste 10 Sudeste 0 -- -- 74
2020-08-22 04:00:00 20.2 5 Sudeste 8 Sudeste 0 -- -- 71
2020-08-22 03:00:00 21.4 2 Sudeste 6 Sudeste 0 -- -- 68
2020-08-22 02:00:00 22.4 4 Sudeste 5 Nordeste 0 -- -- 65
2020-08-22 01:00:00 23.8 2 Sudoeste 13 Sudoeste 0 -- -- 61
2020-08-22 00:00:00 25.5 3 Sudoeste 18 Sudoeste 0 -- -- 58
2020-08-21 23:00:00 26.5 9 Sudoeste 13 Sudoeste 0 -- -- 45
2020-08-21 22:00:00 27.2 3 Sur 8 Sudoeste 0 -- -- 34
2020-08-21 21:00:00 31.6 5 Sudoeste 19 Oeste 0 -- -- 26
2020-08-21 20:00:00 34.7 10 Oeste 16 Oeste 0 -- -- 25
2020-08-21 19:00:00 35.5 11 Oeste 14 Oeste 0 -- -- 24
2020-08-21 18:00:00 35.6 10 Oeste 15 Oeste 0 -- -- 26
2020-08-21 17:00:00 35 9 Oeste 15 Sudoeste 0 -- -- 25
2020-08-21 16:00:00 34.5 10 Oeste 16 Oeste 0 -- -- 22
2020-08-21 15:00:00 33.4 8 Oeste 16 Sudoeste 0 -- -- 23
2020-08-21 14:00:00 31.7 8 Oeste 14 Sudoeste 0 -- -- 29
2020-08-21 13:00:00 29.6 5 Noroeste 13 Oeste 0 -- -- 36
2020-08-21 12:00:00 27.2 5 Oeste 9 Oeste 0 -- -- 42
2020-08-21 11:00:00 24.5 4 Oeste 10 Oeste 0 -- -- 57
2020-08-21 10:00:00 22.4 7 Oeste 11 Oeste 0 -- -- 67
2020-08-21 09:00:00 21 2 Norte 5 Sudeste 0 -- -- 51
2020-08-21 08:00:00 15.1 0 Calma 8 Sudeste 0 -- -- 55
2020-08-21 07:00:00 16.1 8 Sudeste 10 Sudeste 0 -- -- 48
2020-08-21 06:00:00 17 3 Sudeste 10 Sudeste 0 -- -- 51
2020-08-21 05:00:00 18.5 4 Este 6 Este 0 -- -- 42
2020-08-21 04:00:00 19.1 4 Este 8 Oeste 0 -- -- 37
2020-08-21 03:00:00 20.4 6 Sur 13 Sudeste 0 -- -- 36
2020-08-21 02:00:00 21 2 Sur 11 Sur 0 -- -- 32
2020-08-21 01:00:00 23.8 6 Sur 14 Sur 0 -- -- 25
2020-08-21 00:00:00 25 6 Sur 12 Sudoeste 0 -- -- 24